createdAt,value
2023-09-20T00:00:16.174Z,99043.28
2023-09-20T00:01:18.046Z,99040.59
2023-09-20T00:02:19.897Z,99040.88
2023-09-20T00:03:21.710Z,99046.25
2023-09-20T00:04:23.587Z,99044.88
2023-09-20T00:05:25.442Z,99033.09
2023-09-20T00:06:28.021Z,99031.19
2023-09-20T00:07:29.656Z,99036.03
2023-09-20T00:08:31.396Z,99037.63
2023-09-20T00:09:33.365Z,99040.06
2023-09-20T00:10:35.013Z,99036.84
2023-09-20T00:11:36.722Z,99035.47
2023-09-20T00:12:38.302Z,99036.28
2023-09-20T00:13:39.896Z,99035.19
2023-09-20T00:14:41.587Z,99032.50
2023-09-20T00:15:44.407Z,99027.41
2023-09-20T00:16:46.270Z,99030.38
2023-09-20T00:17:48.033Z,99034.41
2023-09-20T00:18:49.785Z,99019.91
2023-09-20T00:19:51.482Z,99015.66
2023-09-20T00:20:53.137Z,99023.94
2023-09-20T00:21:54.770Z,99016.97
2023-09-20T00:22:56.406Z,99013.47
2023-09-20T00:23:57.999Z,99003.56
2023-09-20T00:25:00.789Z,99008.91
2023-09-20T00:26:02.417Z,98983.94
2023-09-20T00:27:04.218Z,98993.84
2023-09-20T00:28:06.290Z,99006.94
2023-09-20T00:29:08.681Z,98992.03
2023-09-20T00:30:11.611Z,98997.56
2023-09-20T00:31:13.446Z,98990.31
2023-09-20T00:32:15.084Z,98979.25
2023-09-20T00:33:16.771Z,98969.00
2023-09-20T00:34:18.473Z,98976.47
2023-09-20T00:35:23.139Z,98975.66
2023-09-20T00:36:24.841Z,98967.91
2023-09-20T00:37:26.615Z,98972.69
2023-09-20T00:38:28.279Z,98975.00
2023-09-20T00:39:29.932Z,98967.00
2023-09-20T00:40:34.123Z,98961.91
2023-09-20T00:41:35.742Z,98961.63
2023-09-20T00:42:37.382Z,98972.63
2023-09-20T00:43:39.797Z,98966.88
2023-09-20T00:44:41.382Z,98969.06
2023-09-20T00:45:43.079Z,98951.91
2023-09-20T00:46:45.417Z,98954.84
2023-09-20T00:47:52.630Z,98960.72
2023-09-20T00:48:56.368Z,98959.06
2023-09-20T00:49:58.666Z,98961.47
2023-09-20T00:51:00.421Z,98967.13
2023-09-20T00:52:04.678Z,98967.13
2023-09-20T00:53:09.138Z,98970.88
2023-09-20T00:54:10.878Z,98965.56
2023-09-20T00:55:22.424Z,98961.28
2023-09-20T00:56:24.879Z,98964.22
2023-09-20T00:57:27.233Z,98950.84
2023-09-20T00:58:30.623Z,98961.00
2023-09-20T00:59:34.019Z,98953.78
2023-09-20T01:00:38.837Z,98953.25
2023-09-20T01:01:41.919Z,98950.28
2023-09-20T01:02:45.559Z,98954.31
2023-09-20T01:03:48.813Z,98948.41
2023-09-20T01:04:50.858Z,98952.66
2023-09-20T01:05:52.584Z,98942.47
2023-09-20T01:06:54.187Z,98950.47
2023-09-20T01:07:57.708Z,98945.66
2023-09-20T01:08:59.398Z,98941.38
2023-09-20T01:10:01.024Z,98946.47
2023-09-20T01:11:02.890Z,98935.78
2023-09-20T01:12:06.924Z,98926.72
2023-09-20T01:13:11.006Z,98931.56
2023-09-20T01:14:13.302Z,98934.25
2023-09-20T01:15:15.107Z,98934.63
2023-09-20T01:16:16.718Z,98932.50
2023-09-20T01:17:19.141Z,98934.44
2023-09-20T01:18:20.919Z,98935.25
2023-09-20T01:19:22.734Z,98936.06
2023-09-20T01:20:28.796Z,98933.41
2023-09-20T01:21:30.439Z,98936.91
2023-09-20T01:22:31.997Z,98929.19
2023-09-20T01:23:36.601Z,98933.22
2023-09-20T01:24:39.058Z,98935.38
2023-09-20T01:25:44.956Z,98931.91
2023-09-20T01:26:49.322Z,98933.25
2023-09-20T01:27:52.444Z,98922.84
2023-09-20T01:28:54.031Z,98933.84
2023-09-20T01:29:55.611Z,98931.69
2023-09-20T01:30:59.541Z,98932.50
2023-09-20T01:32:03.146Z,98936.56
2023-09-20T01:33:08.220Z,98934.38
2023-09-20T01:34:10.674Z,98944.53
2023-09-20T01:35:17.543Z,98954.19
2023-09-20T01:36:19.471Z,98946.97
2023-09-20T01:37:21.923Z,98948.53
2023-09-20T01:38:23.950Z,98956.06
2023-09-20T01:39:26.137Z,98946.97
2023-09-20T01:40:27.885Z,98944.00
2023-09-20T01:41:29.550Z,98953.66
2023-09-20T01:42:31.307Z,98959.03
2023-09-20T01:43:32.977Z,98959.03
2023-09-20T01:44:38.676Z,98957.16
2023-09-20T01:45:44.057Z,98960.34
2023-09-20T01:46:45.778Z,98960.06
2023-09-20T01:47:50.988Z,98962.72
2023-09-20T01:48:54.336Z,98959.78
2023-09-20T01:49:56.114Z,98961.13
2023-09-20T01:50:58.119Z,98958.97
2023-09-20T01:52:02.669Z,98965.88
2023-09-20T01:53:11.057Z,98965.88
2023-09-20T01:54:12.764Z,98968.28
2023-09-20T01:55:16.531Z,98977.38
2023-09-20T01:56:18.940Z,98981.13
2023-09-20T01:57:20.526Z,98976.84
2023-09-20T01:58:22.138Z,98981.94
2023-09-20T01:59:23.789Z,98982.47
2023-09-20T02:00:30.809Z,98981.94
2023-09-20T02:01:32.531Z,98990.22
2023-09-20T02:02:35.466Z,98988.34
2023-09-20T02:03:37.304Z,98991.56
2023-09-20T02:04:38.948Z,98983.78
2023-09-20T02:05:41.802Z,98976.03
2023-09-20T02:06:43.517Z,98986.44
2023-09-20T02:07:46.838Z,98983.19
2023-09-20T02:08:49.880Z,98979.47
2023-09-20T02:09:51.518Z,98989.34
2023-09-20T02:10:53.456Z,98983.50
2023-09-20T02:11:55.056Z,98986.16
2023-09-20T02:13:00.447Z,98985.34
2023-09-20T02:14:02.063Z,98986.41
2023-09-20T02:15:08.611Z,98985.34
2023-09-20T02:16:11.221Z,98981.28
2023-09-20T02:17:12.883Z,98978.59
2023-09-20T02:18:14.552Z,98981.25
2023-09-20T02:19:18.678Z,98988.47
2023-09-20T02:20:22.071Z,98991.41
2023-09-20T02:21:23.849Z,98996.19
2023-09-20T02:22:25.468Z,98988.19
2023-09-20T02:23:29.120Z,98989.25
2023-09-20T02:24:30.822Z,98991.63
2023-09-20T02:25:32.519Z,98994.84
2023-09-20T02:26:34.477Z,98989.75
2023-09-20T02:27:36.098Z,98992.66
2023-09-20T02:28:37.699Z,98992.16
2023-09-20T02:29:39.360Z,99000.44
2023-09-20T02:30:42.772Z,98999.63
2023-09-20T02:31:44.413Z,98993.47
2023-09-20T02:32:47.959Z,98985.72
2023-09-20T02:33:49.674Z,98993.22
2023-09-20T02:34:52.347Z,98974.09
2023-09-20T02:35:53.970Z,98995.91
2023-09-20T02:36:57.880Z,99000.94
2023-09-20T02:38:06.829Z,98998.28
2023-09-20T02:39:10.759Z,98988.72
2023-09-20T02:40:15.854Z,98998.31
2023-09-20T02:41:17.469Z,98986.81
2023-09-20T02:42:20.154Z,98992.19
2023-09-20T02:43:24.851Z,98990.31
2023-09-20T02:44:26.728Z,98992.44
2023-09-20T02:45:34.560Z,99002.88
2023-09-20T02:46:36.285Z,99004.47
2023-09-20T02:47:38.138Z,99005.22
2023-09-20T02:48:40.119Z,98994.78
2023-09-20T02:49:42.019Z,98998.56
2023-09-20T02:50:45.560Z,98997.50
2023-09-20T02:51:51.032Z,98998.03
2023-09-20T02:52:54.002Z,98998.84
2023-09-20T02:53:55.695Z,98993.47
2023-09-20T02:54:57.311Z,98969.59
2023-09-20T02:55:58.954Z,98995.66
2023-09-20T02:57:00.618Z,98990.56
2023-09-20T02:58:02.244Z,98986.25
2023-09-20T02:59:07.799Z,98982.47
2023-09-20T03:00:22.704Z,98988.38
2023-09-20T03:01:25.892Z,98993.16
2023-09-20T03:02:29.340Z,98981.38
2023-09-20T03:03:31.254Z,98987.03
2023-09-20T03:04:33.859Z,98980.31
2023-09-20T03:05:37.390Z,98985.91
2023-09-20T03:06:39.020Z,98980.78
2023-09-20T03:07:43.105Z,98983.22
2023-09-20T03:08:46.513Z,98981.84
2023-09-20T03:09:48.158Z,98987.50
2023-09-20T03:10:49.713Z,98979.91
2023-09-20T03:11:56.932Z,98985.88
2023-09-20T03:12:59.113Z,98987.19
2023-09-20T03:14:04.854Z,98992.03
2023-09-20T03:15:11.486Z,98993.34
2023-09-20T03:16:20.700Z,98991.00
2023-09-20T03:17:22.411Z,98993.75
2023-09-20T03:18:24.321Z,98970.66
2023-09-20T03:19:25.953Z,98993.28
2023-09-20T03:20:28.315Z,98995.16
2023-09-20T03:21:30.993Z,98987.13
2023-09-20T03:22:32.623Z,98983.94
2023-09-20T03:23:34.300Z,98963.97
2023-09-20T03:24:39.061Z,98993.03
2023-09-20T03:25:41.300Z,98992.22
2023-09-20T03:26:44.663Z,98994.06
2023-09-20T03:27:47.312Z,98994.56
2023-09-20T03:28:50.054Z,98993.25
2023-09-20T03:29:53.980Z,98984.97
2023-09-20T03:30:57.189Z,98991.41
2023-09-20T03:31:59.745Z,98989.22
2023-09-20T03:33:01.861Z,98990.31
2023-09-20T03:34:05.136Z,98993.00
2023-09-20T03:35:07.617Z,98990.53
2023-09-20T03:36:18.231Z,98998.34
2023-09-20T03:37:19.853Z,98991.31
2023-09-20T03:38:21.448Z,98992.44
2023-09-20T03:39:25.774Z,98995.16
2023-09-20T03:40:29.537Z,98994.63
2023-09-20T03:41:31.352Z,98992.13
2023-09-20T03:42:33.427Z,98999.41
2023-09-20T03:43:34.997Z,98995.38
2023-09-20T03:44:36.620Z,98996.66
2023-09-20T03:45:38.294Z,99000.47
2023-09-20T03:46:40.085Z,99005.84
2023-09-20T03:47:46.755Z,98999.72
2023-09-20T03:48:48.747Z,99003.16
2023-09-20T03:49:53.395Z,98998.59
2023-09-20T03:50:54.970Z,98993.25
2023-09-20T03:51:56.602Z,98996.16
2023-09-20T03:52:58.257Z,98990.56
2023-09-20T03:53:59.854Z,98994.63
2023-09-20T03:55:01.434Z,98989.78
2023-09-20T03:56:04.112Z,99000.50
2023-09-20T03:57:08.028Z,98995.69
2023-09-20T03:58:09.600Z,98996.25
2023-09-20T03:59:13.808Z,98997.88
2023-09-20T04:00:17.373Z,98989.56
2023-09-20T04:01:19.245Z,98992.22
2023-09-20T04:02:24.978Z,99005.09
2023-09-20T04:03:26.800Z,99000.78
2023-09-20T04:04:28.420Z,98994.00
2023-09-20T04:05:43.347Z,99006.06
2023-09-20T04:06:47.405Z,99001.22
2023-09-20T04:07:49.949Z,98999.09
2023-09-20T04:08:51.806Z,99009.78
2023-09-20T04:09:54.228Z,98997.38
2023-09-20T04:10:59.762Z,99007.81
2023-09-20T04:12:01.379Z,98992.22
2023-09-20T04:13:03.489Z,99015.34
2023-09-20T04:14:08.565Z,99007.31
2023-09-20T04:15:12.518Z,99016.94
2023-09-20T04:16:17.876Z,99016.88
2023-09-20T04:17:19.666Z,99023.34
2023-09-20T04:18:21.322Z,99012.59
2023-09-20T04:19:22.960Z,99015.03
2023-09-20T04:20:24.808Z,99021.97
2023-09-20T04:21:26.591Z,99021.19
2023-09-20T04:22:28.889Z,99023.59
2023-09-20T04:23:33.416Z,99028.41
2023-09-20T04:24:35.293Z,99023.06
2023-09-20T04:25:36.881Z,99034.84
2023-09-20T04:26:38.540Z,99029.50
2023-09-20T04:27:40.272Z,99034.84
2023-09-20T04:28:42.058Z,99032.97
2023-09-20T04:29:44.070Z,99032.19
2023-09-20T04:30:45.725Z,99041.53
2023-09-20T04:31:47.447Z,99038.84
2023-09-20T04:32:51.968Z,99037.81
2023-09-20T04:33:54.186Z,99041.78
2023-09-20T04:34:57.636Z,99038.56
2023-09-20T04:36:01.932Z,99042.31
2023-09-20T04:37:03.699Z,99042.56
2023-09-20T04:38:05.429Z,99036.88
2023-09-20T04:39:07.652Z,99029.94
2023-09-20T04:40:10.598Z,99006.00
2023-09-20T04:41:15.053Z,99035.03
2023-09-20T04:42:16.714Z,99031.31
2023-09-20T04:43:18.315Z,99034.22
2023-09-20T04:44:19.929Z,99027.00
2023-09-20T04:45:21.719Z,99033.97
2023-09-20T04:46:24.487Z,99029.44
2023-09-20T04:47:26.439Z,99033.97
2023-09-20T04:48:28.950Z,99030.81
2023-09-20T04:49:30.542Z,99021.66
2023-09-20T04:50:32.217Z,99034.56
2023-09-20T04:51:34.312Z,99030.34
2023-09-20T04:52:35.922Z,99029.28
2023-09-20T04:53:38.943Z,99024.25
2023-09-20T04:54:40.651Z,99027.78
2023-09-20T04:55:42.216Z,99029.94
2023-09-20T04:56:49.187Z,99030.50
2023-09-20T04:57:51.361Z,99024.91
2023-09-20T04:58:53.276Z,99037.31
2023-09-20T04:59:54.894Z,99024.03
2023-09-20T05:00:56.681Z,99025.72
2023-09-20T05:01:58.301Z,99031.72
2023-09-20T05:03:00.459Z,99036.91
2023-09-20T05:04:02.331Z,99042.88
2023-09-20T05:05:06.128Z,99033.63
2023-09-20T05:06:08.573Z,99034.53
2023-09-20T05:07:11.253Z,99035.72
2023-09-20T05:08:14.409Z,99033.16
2023-09-20T05:09:16.020Z,99012.28
2023-09-20T05:10:17.640Z,99034.88
2023-09-20T05:11:20.138Z,99036.50
2023-09-20T05:12:22.889Z,99033.91
2023-09-20T05:13:24.696Z,99041.13
2023-09-20T05:14:26.926Z,99044.59
2023-09-20T05:15:28.630Z,99039.47
2023-09-20T05:16:30.248Z,99042.41
2023-09-20T05:17:34.544Z,99046.06
2023-09-20T05:18:36.373Z,99053.47
2023-09-20T05:19:38.125Z,99050.97
2023-09-20T05:20:40.193Z,99052.16
2023-09-20T05:21:41.852Z,99049.06
2023-09-20T05:22:43.440Z,99050.75
2023-09-20T05:23:45.101Z,99040.41
2023-09-20T05:24:46.677Z,99047.72
2023-09-20T05:25:49.874Z,99048.31
2023-09-20T05:26:51.866Z,99049.41
2023-09-20T05:27:55.658Z,99042.47
2023-09-20T05:28:59.416Z,99046.72
2023-09-20T05:30:01.990Z,99051.81
2023-09-20T05:31:06.950Z,99055.84
2023-09-20T05:32:09.294Z,99049.31
2023-09-20T05:33:13.145Z,99044.47
2023-09-20T05:34:14.758Z,99055.25
2023-09-20T05:35:16.564Z,99049.28
2023-09-20T05:36:22.249Z,99053.91
2023-09-20T05:37:23.990Z,99054.78
2023-09-20T05:38:28.783Z,99057.31
2023-09-20T05:39:31.727Z,99054.31
2023-09-20T05:40:34.377Z,99057.53
2023-09-20T05:41:37.863Z,99057.81
2023-09-20T05:42:39.784Z,99058.38
2023-09-20T05:43:43.953Z,99067.88
2023-09-20T05:44:45.623Z,99064.34
2023-09-20T05:45:47.536Z,99065.25
2023-09-20T05:46:51.323Z,99058.66
2023-09-20T05:47:53.745Z,99064.66
2023-09-20T05:48:55.483Z,99066.50
2023-09-20T05:49:57.930Z,99061.94
2023-09-20T05:51:00.897Z,99063.38
2023-09-20T05:52:06.982Z,99058.88
2023-09-20T05:53:12.215Z,99061.31
2023-09-20T05:54:14.567Z,99061.16
2023-09-20T05:55:16.179Z,99058.63
2023-09-20T05:56:19.890Z,99061.06
2023-09-20T05:57:23.577Z,99059.53
2023-09-20T05:58:26.915Z,99062.28
2023-09-20T05:59:29.223Z,99054.31
2023-09-20T06:00:31.265Z,99062.88
2023-09-20T06:01:33.760Z,99065.59
2023-09-20T06:03:38.257Z,99057.81
2023-09-20T06:04:40.669Z,99057.03
2023-09-20T06:05:42.403Z,99060.88
2023-09-20T06:06:44.869Z,99067.59
2023-09-20T06:07:46.430Z,99070.00
2023-09-20T06:08:48.233Z,99068.09
2023-09-20T06:09:49.909Z,99073.69
2023-09-20T06:10:52.255Z,99073.81
2023-09-20T06:11:53.912Z,99066.47
2023-09-20T06:12:55.559Z,99072.53
2023-09-20T06:13:57.166Z,99079.50
2023-09-20T06:14:58.750Z,99077.06
2023-09-20T06:16:00.642Z,99074.81
2023-09-20T06:17:03.568Z,99072.66
2023-09-20T06:18:05.423Z,99084.44
2023-09-20T06:19:08.724Z,99085.53
2023-09-20T06:20:20.420Z,99081.47
2023-09-20T06:21:22.234Z,99084.94
2023-09-20T06:22:32.583Z,99084.28
2023-09-20T06:23:34.354Z,99085.88
2023-09-20T06:24:36.128Z,99080.75
2023-09-20T06:25:38.029Z,99082.00
2023-09-20T06:26:45.186Z,99081.63
2023-09-20T06:27:47.148Z,99087.97
2023-09-20T06:28:50.791Z,99082.75
2023-09-20T06:29:52.613Z,99078.50
2023-09-20T06:30:54.359Z,99082.75
2023-09-20T06:31:56.014Z,99087.03
2023-09-20T06:32:57.725Z,99091.69
2023-09-20T06:33:59.541Z,99085.53
2023-09-20T06:35:05.599Z,99087.31
2023-09-20T06:36:07.732Z,99088.28
2023-09-20T06:37:10.945Z,99090.78
2023-09-20T06:38:12.753Z,99092.66
2023-09-20T06:39:14.938Z,99092.22
2023-09-20T06:40:23.623Z,99086.78
2023-09-20T06:41:26.432Z,99092.59
2023-09-20T06:42:31.569Z,99081.66
2023-09-20T06:43:33.227Z,99079.84
2023-09-20T06:44:39.764Z,99088.19
2023-09-20T06:45:50.898Z,99092.16
2023-09-20T06:46:52.537Z,99087.13
2023-09-20T06:47:57.016Z,99096.22
2023-09-20T06:48:58.986Z,99083.47
2023-09-20T06:50:03.897Z,99094.50
2023-09-20T06:51:05.612Z,99081.72
2023-09-20T06:52:07.273Z,99086.34
2023-09-20T06:53:08.945Z,99090.69
2023-09-20T06:54:10.813Z,99089.50
2023-09-20T06:55:18.787Z,99086.19
2023-09-20T06:56:20.780Z,99088.16
2023-09-20T06:57:23.289Z,99087.41
2023-09-20T06:58:26.259Z,99093.50
2023-09-20T06:59:27.907Z,99087.94
2023-09-20T07:00:30.223Z,99090.66
2023-09-20T07:01:33.575Z,99090.38
2023-09-20T07:02:35.315Z,99087.19
2023-09-20T07:03:37.109Z,99095.16
2023-09-20T07:04:40.483Z,99091.09
2023-09-20T07:05:42.460Z,99090.63
2023-09-20T07:06:44.172Z,99087.78
2023-09-20T07:07:46.500Z,99093.47
2023-09-20T07:08:48.183Z,99091.44
2023-09-20T07:09:49.794Z,99092.81
2023-09-20T07:10:52.572Z,99095.59
2023-09-20T07:11:55.169Z,99090.06
2023-09-20T07:12:57.280Z,99094.56
2023-09-20T07:14:00.855Z,99093.25
2023-09-20T07:15:07.345Z,99090.28
2023-09-20T07:16:10.072Z,99092.94
2023-09-20T07:17:13.044Z,99095.69
2023-09-20T07:18:15.170Z,99089.84
2023-09-20T07:19:19.955Z,99098.00
2023-09-20T07:20:21.848Z,99094.69
2023-09-20T07:21:23.442Z,99093.03
2023-09-20T07:22:25.111Z,99100.94
2023-09-20T07:23:26.942Z,99094.53
2023-09-20T07:24:28.576Z,99102.41
2023-09-20T07:25:30.342Z,99095.56
2023-09-20T07:26:34.066Z,99091.66
2023-09-20T07:27:35.896Z,99092.28
2023-09-20T07:28:38.088Z,99093.28
2023-09-20T07:29:41.502Z,99098.72
2023-09-20T07:30:46.081Z,99098.00
2023-09-20T07:31:49.442Z,99101.13
2023-09-20T07:33:08.731Z,99084.63
2023-09-20T07:34:17.402Z,99089.31
2023-09-20T07:35:28.760Z,99095.78
2023-09-20T07:36:37.916Z,99096.44
2023-09-20T07:37:44.514Z,99093.03
2023-09-20T07:38:46.610Z,99099.41
2023-09-20T07:39:48.529Z,99097.25
2023-09-20T07:40:51.871Z,99089.59
2023-09-20T07:41:54.116Z,99095.97
2023-09-20T07:43:02.011Z,99098.53
2023-09-20T07:44:06.926Z,99098.47
2023-09-20T07:45:14.335Z,99096.09
2023-09-20T07:46:16.558Z,99086.69
2023-09-20T07:47:21.439Z,99090.59
2023-09-20T07:48:23.939Z,99096.66
2023-09-20T07:49:25.582Z,99090.94
2023-09-20T07:50:27.900Z,99090.66
2023-09-20T07:51:32.766Z,99090.34
2023-09-20T07:52:36.740Z,99092.78
2023-09-20T07:53:39.181Z,99092.91
2023-09-20T07:54:41.011Z,99091.06
2023-09-20T07:55:45.673Z,99093.81
2023-09-20T07:56:51.869Z,99096.16
2023-09-20T07:57:54.160Z,99092.72
2023-09-20T07:58:56.662Z,99101.00
2023-09-20T08:00:00.722Z,99094.38
2023-09-20T08:01:11.789Z,99090.09
2023-09-20T08:02:16.691Z,99094.91
2023-09-20T08:03:20.004Z,99083.09
2023-09-20T08:04:23.219Z,99089.88
2023-09-20T08:05:25.115Z,99089.13
2023-09-20T08:06:29.322Z,99091.88
2023-09-20T08:07:30.949Z,99087.50
2023-09-20T08:08:32.591Z,99092.59
2023-09-20T08:09:34.221Z,99084.66
2023-09-20T08:10:37.722Z,99088.72
2023-09-20T08:11:39.353Z,99090.34
2023-09-20T08:12:40.981Z,99084.81
2023-09-20T08:13:42.678Z,99084.41
2023-09-20T08:14:44.300Z,99080.13
2023-09-20T08:15:45.996Z,99080.66
2023-09-20T08:17:06.057Z,99085.03
2023-09-20T08:18:26.422Z,99081.94
2023-09-20T08:19:32.214Z,99076.41
2023-09-20T08:20:38.712Z,99076.41
2023-09-20T08:21:41.157Z,99071.28
2023-09-20T08:23:01.669Z,99065.34
2023-09-20T08:24:24.143Z,99063.41
2023-09-20T08:25:44.098Z,99060.63
2023-09-20T08:27:04.643Z,99058.72
2023-09-20T08:28:25.086Z,99058.38
2023-09-20T08:29:45.328Z,99058.38
2023-09-20T08:31:08.788Z,99054.38
2023-09-20T08:32:29.127Z,99045.34
2023-09-20T08:33:49.293Z,99029.59
2023-09-20T08:35:09.904Z,99057.63
2023-09-20T08:36:30.017Z,99042.63
2023-09-20T08:37:50.095Z,99041.69
2023-09-20T08:39:14.787Z,99046.81
2023-09-20T08:40:40.734Z,99034.50
2023-09-20T08:42:00.779Z,99048.72
2023-09-20T08:43:21.419Z,99046.41
2023-09-20T08:44:41.460Z,99046.50
2023-09-20T08:46:04.521Z,99043.78
2023-09-20T08:47:28.402Z,99042.63
2023-09-20T08:48:48.967Z,99033.19
2023-09-20T08:50:09.750Z,99019.41
2023-09-20T08:51:29.802Z,99033.59
2023-09-20T08:52:50.257Z,99033.22
2023-09-20T08:54:12.963Z,99026.84
2023-09-20T08:55:33.342Z,99022.16
2023-09-20T08:56:53.962Z,99014.66
2023-09-20T08:58:15.510Z,99023.75
2023-09-20T08:59:35.919Z,99024.94
2023-09-20T09:00:40.503Z,99022.53
2023-09-20T09:01:47.976Z,99023.75
2023-09-20T09:02:53.613Z,99023.34
2023-09-20T09:04:00.498Z,99025.31
2023-09-20T09:05:05.204Z,99026.13
2023-09-20T09:06:09.410Z,99028.47
2023-09-20T09:07:11.289Z,99021.38
2023-09-20T09:08:14.656Z,99011.91
2023-09-20T09:09:16.437Z,99019.78
2023-09-20T09:10:19.398Z,99021.75
2023-09-20T09:11:21.256Z,99025.69
2023-09-20T09:12:22.822Z,99016.22
2023-09-20T09:13:24.749Z,99014.25
2023-09-20T09:14:29.187Z,99012.66
2023-09-20T09:15:31.084Z,99012.69
2023-09-20T09:16:34.207Z,99013.44
2023-09-20T09:17:45.000Z,99015.38
2023-09-20T09:18:46.763Z,99002.72
2023-09-20T09:19:49.075Z,99016.53
2023-09-20T09:20:53.773Z,99001.47
2023-09-20T09:21:56.869Z,99006.19
2023-09-20T09:22:58.537Z,99011.06
2023-09-20T09:24:00.159Z,99007.56
2023-09-20T09:25:01.749Z,99006.75
2023-09-20T09:26:03.487Z,99002.44
2023-09-20T09:27:06.881Z,99003.59
2023-09-20T09:28:08.571Z,98997.69
2023-09-20T09:29:17.847Z,98998.50
2023-09-20T09:30:19.582Z,98999.66
2023-09-20T09:31:21.457Z,99001.25
2023-09-20T09:32:24.153Z,98996.91
2023-09-20T09:33:27.900Z,99000.84
2023-09-20T09:34:29.686Z,98990.19
2023-09-20T09:35:40.917Z,98996.91
2023-09-20T09:36:47.160Z,99004.78
2023-09-20T09:37:49.117Z,99004.38
2023-09-20T09:38:50.969Z,98997.66
2023-09-20T09:40:01.245Z,98992.53
2023-09-20T09:41:03.966Z,99000.03
2023-09-20T09:42:05.628Z,98997.69
2023-09-20T09:43:16.949Z,98999.25
2023-09-20T09:44:18.838Z,99001.59
2023-09-20T09:45:33.275Z,98999.22
2023-09-20T09:46:42.683Z,98981.44
2023-09-20T09:47:44.469Z,98996.06
2023-09-20T09:48:48.009Z,98989.34
2023-09-20T09:49:50.288Z,98995.63
2023-09-20T09:50:54.232Z,98985.72
2023-09-20T09:51:56.206Z,98989.22
2023-09-20T09:52:59.503Z,98984.03
2023-09-20T09:54:03.071Z,98985.97
2023-09-20T09:55:06.644Z,98982.44
2023-09-20T09:56:08.313Z,98979.28
2023-09-20T09:57:09.944Z,98978.09
2023-09-20T09:58:11.573Z,98980.19
2023-09-20T09:59:13.700Z,98979.06
2023-09-20T10:00:17.330Z,98977.47
2023-09-20T10:01:20.936Z,98980.28
2023-09-20T10:02:27.388Z,98975.56
2023-09-20T10:03:31.287Z,98984.63
2023-09-20T10:04:35.000Z,98979.94
2023-09-20T10:05:37.488Z,98977.16
2023-09-20T10:06:56.995Z,98975.97
2023-09-20T10:08:02.722Z,98974.00
2023-09-20T10:09:11.543Z,98979.50
2023-09-20T10:10:17.843Z,98984.22
2023-09-20T10:11:22.683Z,98974.72
2023-09-20T10:12:26.491Z,98974.66
2023-09-20T10:13:32.115Z,98967.53
2023-09-20T10:14:37.523Z,98970.75
2023-09-20T10:15:39.692Z,98966.38
2023-09-20T10:16:43.989Z,98966.00
2023-09-20T10:17:53.335Z,98965.97
2023-09-20T10:18:59.341Z,98974.66
2023-09-20T10:20:09.419Z,98963.28
2023-09-20T10:21:16.287Z,98962.03
2023-09-20T10:22:22.929Z,98961.34
2023-09-20T10:23:25.093Z,98955.06
2023-09-20T10:24:30.448Z,98948.28
2023-09-20T10:25:36.664Z,98946.28
2023-09-20T10:26:40.885Z,98945.47
2023-09-20T10:27:42.733Z,98946.69
2023-09-20T10:28:48.541Z,98944.31
2023-09-20T10:30:13.104Z,98940.75
2023-09-20T10:31:16.890Z,98944.72
2023-09-20T10:32:19.234Z,98942.78
2023-09-20T10:33:46.708Z,98944.81
2023-09-20T10:35:20.473Z,98934.91
2023-09-20T10:36:30.000Z,98935.72
2023-09-20T10:37:33.369Z,98929.44
2023-09-20T10:38:35.049Z,98940.47
2023-09-20T10:39:39.404Z,98932.59
2023-09-20T10:41:04.409Z,98934.94
2023-09-20T10:42:13.761Z,98930.97
2023-09-20T10:43:37.050Z,98937.63
2023-09-20T10:44:42.806Z,98929.41
2023-09-20T10:45:51.642Z,98926.59
2023-09-20T10:46:54.720Z,98931.72
2023-09-20T10:47:57.313Z,98929.78
2023-09-20T10:48:59.027Z,98936.53
2023-09-20T10:50:00.782Z,98934.97
2023-09-20T10:51:05.128Z,98931.41
2023-09-20T10:52:06.813Z,98936.16
2023-09-20T10:53:11.624Z,98929.84
2023-09-20T10:54:37.735Z,98931.44
2023-09-20T10:55:40.075Z,98941.28
2023-09-20T10:56:45.740Z,98938.50
2023-09-20T10:57:47.956Z,98931.78
2023-09-20T10:58:50.213Z,98934.16
2023-09-20T10:59:54.645Z,98932.97
2023-09-20T11:00:57.145Z,98929.84
2023-09-20T11:02:10.184Z,98932.16
2023-09-20T11:03:12.856Z,98925.00
2023-09-20T11:04:14.613Z,98937.19
2023-09-20T11:05:17.930Z,98920.97
2023-09-20T11:06:19.719Z,98924.88
2023-09-20T11:07:21.544Z,98925.72
2023-09-20T11:08:25.665Z,98926.59
2023-09-20T11:09:39.534Z,98927.44
2023-09-20T11:10:41.843Z,98919.53
2023-09-20T11:11:44.532Z,98924.31
2023-09-20T11:12:47.023Z,98912.88
2023-09-20T11:13:50.381Z,98916.03
2023-09-20T11:14:52.901Z,98906.38
2023-09-20T11:15:56.216Z,98913.59
2023-09-20T11:16:58.231Z,98906.19
2023-09-20T11:18:00.311Z,98908.75
2023-09-20T11:19:02.083Z,98909.47
2023-09-20T11:20:07.420Z,98908.50
2023-09-20T11:21:09.164Z,98909.59
2023-09-20T11:22:11.190Z,98906.38
2023-09-20T11:23:14.379Z,98901.78
2023-09-20T11:24:16.661Z,98902.56
2023-09-20T11:25:18.350Z,98901.31
2023-09-20T11:26:30.027Z,98904.06
2023-09-20T11:27:35.904Z,98896.63
2023-09-20T11:28:38.471Z,98903.50
2023-09-20T11:29:45.101Z,98901.13
2023-09-20T11:30:52.696Z,98910.59
2023-09-20T11:32:00.457Z,98902.06
2023-09-20T11:33:05.425Z,98896.53
2023-09-20T11:34:07.467Z,98887.47
2023-09-20T11:35:09.495Z,98895.19
2023-09-20T11:36:20.648Z,98897.13
2023-09-20T11:37:23.614Z,98892.81
2023-09-20T11:38:25.415Z,98894.94
2023-09-20T11:39:30.371Z,98893.72
2023-09-20T11:40:33.157Z,98889.28
2023-09-20T11:41:36.587Z,98887.69
2023-09-20T11:42:38.488Z,98890.66
2023-09-20T11:43:42.356Z,98884.78
2023-09-20T11:44:44.031Z,98879.59
2023-09-20T11:45:57.688Z,98890.91
2023-09-20T11:47:02.499Z,98896.53
2023-09-20T11:48:10.212Z,98889.06
2023-09-20T11:49:12.743Z,98889.53
2023-09-20T11:50:15.583Z,98886.00
2023-09-20T11:51:18.609Z,98883.00
2023-09-20T11:52:21.348Z,98883.41
2023-09-20T11:53:23.453Z,98886.00
2023-09-20T11:54:35.537Z,98882.75
2023-09-20T11:55:42.575Z,98872.25
2023-09-20T11:56:48.974Z,98888.00
2023-09-20T11:57:51.126Z,98882.94
2023-09-20T11:58:54.831Z,98879.06
2023-09-20T11:59:56.885Z,98871.66
2023-09-20T12:00:59.020Z,98878.28
2023-09-20T12:02:00.669Z,98872.91
2023-09-20T12:03:03.772Z,98859.88
2023-09-20T12:04:05.844Z,98877.50
2023-09-20T12:05:08.661Z,98866.47
2023-09-20T12:06:10.405Z,98868.50
2023-09-20T12:07:12.105Z,98868.50
2023-09-20T12:08:13.705Z,98861.81
2023-09-20T12:09:15.365Z,98861.97
2023-09-20T12:10:17.678Z,98857.91
2023-09-20T12:11:19.633Z,98862.78
2023-09-20T12:12:21.246Z,98859.41
2023-09-20T12:13:23.490Z,98854.91
2023-09-20T12:14:25.621Z,98857.03
2023-09-20T12:15:27.368Z,98858.97
2023-09-20T12:16:29.098Z,98858.28
2023-09-20T12:17:30.783Z,98853.19
2023-09-20T12:18:32.524Z,98854.34
2023-09-20T12:19:34.686Z,98850.22
2023-09-20T12:20:39.408Z,98850.88
2023-09-20T12:21:45.716Z,98843.53
2023-09-20T12:22:47.366Z,98847.00
2023-09-20T12:23:49.144Z,98843.97
2023-09-20T12:24:50.793Z,98838.81
2023-09-20T12:25:52.513Z,98848.44
2023-09-20T12:26:55.555Z,98838.09
2023-09-20T12:27:57.482Z,98836.75
2023-09-20T12:28:59.203Z,98835.16
2023-09-20T12:30:01.382Z,98830.31
2023-09-20T12:31:04.396Z,98824.28
2023-09-20T12:32:06.051Z,98844.22
2023-09-20T12:33:08.801Z,98829.09
2023-09-20T12:34:11.267Z,98825.44
2023-09-20T12:35:14.629Z,98830.81